createdAt,value
2022-11-08T00:01:31.752Z,99105.97
2022-11-08T00:03:59.026Z,99112.75
2022-11-08T00:06:45.254Z,99107.31
2022-11-08T00:09:30.475Z,99100.84
2022-11-08T00:12:16.140Z,99108.53
2022-11-08T00:14:42.967Z,99110.97
2022-11-08T00:17:10.229Z,99111.66
2022-11-08T00:19:36.909Z,99103.69
2022-11-08T00:22:03.879Z,99115.78
2022-11-08T00:24:30.583Z,99118.28
2022-11-08T00:26:57.567Z,99112.94
2022-11-08T00:29:24.282Z,99120.69
2022-11-08T00:31:51.280Z,99113.53
2022-11-08T00:34:18.043Z,99122.16
2022-11-08T00:36:45.028Z,99125.53
2022-11-08T00:39:11.746Z,99113.09
2022-11-08T00:41:38.725Z,99114.69
2022-11-08T00:44:05.617Z,99115.47
2022-11-08T00:46:32.627Z,99111.88
2022-11-08T00:48:59.317Z,99110.03
2022-11-08T00:51:26.281Z,99108.09
2022-11-08T00:53:52.955Z,99102.78
2022-11-08T00:56:19.955Z,99115.75
2022-11-08T00:58:46.648Z,99111.31
2022-11-08T01:01:15.052Z,99112.06
2022-11-08T01:03:41.866Z,99110.22
2022-11-08T01:06:09.585Z,99108.38
2022-11-08T01:08:36.433Z,99107.41
2022-11-08T01:11:05.636Z,99099.34
2022-11-08T01:13:32.918Z,99105.38
2022-11-08T01:16:05.738Z,99112.22
2022-11-08T01:18:32.431Z,99111.25
2022-11-08T01:20:59.639Z,99109.41
2022-11-08T01:23:26.328Z,99104.97
2022-11-08T01:25:53.305Z,99110.22
2022-11-08T01:28:20.403Z,99111.09
2022-11-08T01:30:47.968Z,99108.47
2022-11-08T01:33:15.176Z,99105.03
2022-11-08T01:35:44.221Z,99105.13
2022-11-08T01:38:10.937Z,99100.97
2022-11-08T01:40:47.805Z,99104.56
2022-11-08T01:43:26.436Z,99101.22
2022-11-08T01:46:12.026Z,99099.72
2022-11-08T01:48:40.831Z,99094.75
2022-11-08T01:51:09.621Z,99104.47
2022-11-08T01:53:36.822Z,99102.06
2022-11-08T01:56:04.394Z,99103.09
2022-11-08T01:58:34.555Z,99096.22
2022-11-08T02:01:02.113Z,99098.13
2022-11-08T02:03:30.808Z,99095.66
2022-11-08T02:05:57.802Z,99094.06
2022-11-08T02:08:27.839Z,99097.84
2022-11-08T02:10:54.803Z,99091.78
2022-11-08T02:13:23.773Z,99095.41
2022-11-08T02:15:50.681Z,99092.03
2022-11-08T02:18:19.681Z,99099.16
2022-11-08T02:20:53.393Z,99100.13
2022-11-08T02:23:43.728Z,99100.31
2022-11-08T02:26:11.138Z,99097.75
2022-11-08T02:28:38.959Z,99097.88
2022-11-08T02:31:07.603Z,99098.06
2022-11-08T02:33:35.533Z,99094.72
2022-11-08T02:36:02.467Z,99095.69
2022-11-08T02:38:30.066Z,99093.25
2022-11-08T02:41:23.919Z,99088.09
2022-11-08T02:43:50.881Z,99090.91
2022-11-08T02:46:17.571Z,99091.91
2022-11-08T02:48:45.967Z,99089.47
2022-11-08T02:51:12.593Z,99095.59
2022-11-08T02:53:39.479Z,99091.19
2022-11-08T02:56:06.165Z,99092.91
2022-11-08T02:58:33.214Z,99086.06
2022-11-08T03:00:59.872Z,99092.31
2022-11-08T03:03:26.863Z,99097.69
2022-11-08T03:05:53.503Z,99100.38
2022-11-08T03:08:20.861Z,99096.19
2022-11-08T03:10:47.825Z,99095.41
2022-11-08T03:13:14.869Z,99087.53
2022-11-08T03:15:41.543Z,99084.09
2022-11-08T03:18:08.513Z,99084.94
2022-11-08T03:20:35.145Z,99084.94
2022-11-08T03:23:03.006Z,99094.69
2022-11-08T03:25:29.944Z,99088.44
2022-11-08T03:28:01.164Z,99087.50
2022-11-08T03:30:27.808Z,99087.41
2022-11-08T03:32:54.801Z,99094.31
2022-11-08T03:35:21.427Z,99098.56
2022-11-08T03:37:55.505Z,99102.00
2022-11-08T03:40:22.816Z,99097.69
2022-11-08T03:42:49.771Z,99104.72
2022-11-08T03:45:16.493Z,99102.19
2022-11-08T03:47:44.534Z,99102.25
2022-11-08T03:50:11.700Z,99101.38
2022-11-08T03:52:46.118Z,99108.31
2022-11-08T03:55:13.189Z,99108.25
2022-11-08T03:57:41.102Z,99103.81
2022-11-08T04:00:09.205Z,99100.47
2022-11-08T04:02:36.239Z,99111.00
2022-11-08T04:05:03.063Z,99103.06
2022-11-08T04:07:29.952Z,99110.00
2022-11-08T04:09:56.620Z,99115.25
2022-11-08T04:12:42.151Z,99112.66
2022-11-08T04:15:16.452Z,99107.38
2022-11-08T04:18:02.639Z,99110.97
2022-11-08T04:20:47.949Z,99109.97
2022-11-08T04:23:15.611Z,99104.78
2022-11-08T04:25:42.667Z,99105.75
2022-11-08T04:28:10.061Z,99105.94
2022-11-08T04:30:37.099Z,99111.31
2022-11-08T04:33:04.768Z,99099.25
2022-11-08T04:35:31.583Z,99097.50
2022-11-08T04:37:59.649Z,99094.03
2022-11-08T04:40:26.583Z,99098.44
2022-11-08T04:42:53.555Z,99095.97
2022-11-08T04:45:20.236Z,99093.44
2022-11-08T04:47:48.593Z,99092.63
2022-11-08T04:50:15.885Z,99101.41
2022-11-08T04:52:42.916Z,99094.59
2022-11-08T04:55:09.790Z,99093.78
2022-11-08T04:57:36.789Z,99094.66
2022-11-08T05:00:04.263Z,99094.66
2022-11-08T05:02:31.317Z,99095.53
2022-11-08T05:04:58.235Z,99091.94
2022-11-08T05:07:25.176Z,99087.56
2022-11-08T05:09:51.810Z,99087.56
2022-11-08T05:12:18.783Z,99092.91
2022-11-08T05:14:45.457Z,99096.56
2022-11-08T05:17:12.429Z,99092.34
2022-11-08T05:19:57.436Z,99087.25
2022-11-08T05:22:43.232Z,99089.13
2022-11-08T05:25:09.882Z,99097.09
2022-11-08T05:27:36.855Z,99097.16
2022-11-08T05:30:03.920Z,99099.78
2022-11-08T05:32:30.876Z,99098.94
2022-11-08T05:34:57.526Z,99093.66
2022-11-08T05:37:24.469Z,99092.88
2022-11-08T05:39:51.186Z,99101.53
2022-11-08T05:42:18.393Z,99098.69
2022-11-08T05:44:45.059Z,99099.50
2022-11-08T05:47:12.169Z,99097.72
2022-11-08T05:49:38.813Z,99111.63
2022-11-08T05:52:05.977Z,99111.38
2022-11-08T05:54:32.703Z,99110.41
2022-11-08T05:56:59.641Z,99107.66
2022-11-08T05:59:26.316Z,99114.47
2022-11-08T06:01:53.285Z,99109.03
2022-11-08T06:04:20.110Z,99116.56
2022-11-08T06:06:49.447Z,99110.94
2022-11-08T06:09:16.072Z,99126.34
2022-11-08T06:11:43.032Z,99128.06
2022-11-08T06:14:09.681Z,99119.34
2022-11-08T06:16:36.691Z,99122.59
2022-11-08T06:19:03.586Z,99126.69
2022-11-08T06:21:30.545Z,99123.84
2022-11-08T06:23:57.266Z,99129.66
2022-11-08T06:26:24.486Z,99120.41
2022-11-08T06:28:51.209Z,99133.84
2022-11-08T06:31:18.195Z,99133.25
2022-11-08T06:33:45.240Z,99134.16
2022-11-08T06:36:12.220Z,99141.09
2022-11-08T06:38:38.903Z,99140.44
2022-11-08T06:41:05.848Z,99135.56
2022-11-08T06:43:32.492Z,99135.50
2022-11-08T06:46:00.233Z,99137.44
2022-11-08T06:48:30.976Z,99144.41
2022-11-08T06:51:01.491Z,99149.66
2022-11-08T06:53:28.451Z,99143.69
2022-11-08T06:55:55.453Z,99143.41
2022-11-08T06:58:22.052Z,99148.03
2022-11-08T07:00:49.036Z,99147.25
2022-11-08T07:03:17.077Z,99146.97
2022-11-08T07:05:44.238Z,99148.16
2022-11-08T07:08:10.993Z,99157.34
2022-11-08T07:10:37.983Z,99145.41
2022-11-08T07:13:06.294Z,99153.41
2022-11-08T07:15:34.537Z,99150.34
2022-11-08T07:18:01.904Z,99152.69
2022-11-08T07:20:29.295Z,99155.34
2022-11-08T07:22:56.697Z,99152.91
2022-11-08T07:25:24.095Z,99157.63
2022-11-08T07:27:50.746Z,99152.41
2022-11-08T07:30:17.732Z,99147.94
2022-11-08T07:32:44.509Z,99158.44
2022-11-08T07:35:11.428Z,99162.44
2022-11-08T07:37:38.063Z,99163.19
2022-11-08T07:40:05.325Z,99159.66
2022-11-08T07:42:50.005Z,99165.34
2022-11-08T07:45:18.960Z,99169.03
2022-11-08T07:47:45.605Z,99169.34
2022-11-08T07:50:16.317Z,99170.66
2022-11-08T07:52:49.125Z,99172.28
2022-11-08T07:55:16.145Z,99176.78
2022-11-08T07:57:42.833Z,99175.09
2022-11-08T08:00:10.437Z,99171.16
2022-11-08T08:02:37.143Z,99177.22
2022-11-08T08:05:04.303Z,99177.53
2022-11-08T08:07:30.934Z,99170.53
2022-11-08T08:09:57.886Z,99163.97
2022-11-08T08:12:24.539Z,99152.63
2022-11-08T08:14:51.451Z,99158.50
2022-11-08T08:17:18.156Z,99150.28
2022-11-08T08:19:45.149Z,99160.72
2022-11-08T08:22:11.849Z,99151.28
2022-11-08T08:24:38.801Z,99155.41
2022-11-08T08:27:05.430Z,99152.75
2022-11-08T08:29:32.360Z,99154.97
2022-11-08T08:31:59.271Z,99160.91
2022-11-08T08:34:26.222Z,99175.16
2022-11-08T08:36:52.911Z,99167.09
2022-11-08T08:39:19.804Z,99174.41
2022-11-08T08:41:46.431Z,99157.72
2022-11-08T08:44:13.426Z,99154.72
2022-11-08T08:46:40.098Z,99164.34
2022-11-08T08:49:07.037Z,99167.34
2022-11-08T08:51:33.672Z,99152.19
2022-11-08T08:54:00.651Z,99156.72
2022-11-08T08:56:27.302Z,99170.03
2022-11-08T09:01:40.862Z,99150.66
2022-11-08T09:04:07.997Z,99155.28
2022-11-08T09:06:35.052Z,99158.81
2022-11-08T09:09:02.157Z,99150.69
2022-11-08T09:11:28.842Z,99154.69
2022-11-08T09:13:55.891Z,99149.38
2022-11-08T09:16:22.514Z,99149.22
2022-11-08T09:18:49.549Z,99158.03
2022-11-08T09:21:16.292Z,99147.84
2022-11-08T09:23:43.277Z,99152.44
2022-11-08T09:26:12.745Z,99153.31
2022-11-08T09:28:39.712Z,99141.69
2022-11-08T09:31:07.716Z,99136.56
2022-11-08T09:33:35.090Z,99142.56
2022-11-08T09:36:02.918Z,99142.38
2022-11-08T09:38:30.266Z,99127.25
2022-11-08T09:40:59.688Z,99136.69
2022-11-08T09:43:42.046Z,99130.50
2022-11-08T09:46:10.138Z,99128.19
2022-11-08T09:48:38.960Z,99130.03
2022-11-08T09:51:13.694Z,99132.38
2022-11-08T09:53:49.857Z,99129.69
2022-11-08T09:56:16.467Z,99128.88
2022-11-08T09:58:47.695Z,99128.13
2022-11-08T10:01:14.538Z,99129.69
2022-11-08T10:03:44.747Z,99121.75
2022-11-08T10:06:14.416Z,99134.63
2022-11-08T10:08:55.445Z,99122.50
2022-11-08T10:11:25.073Z,99119.19
2022-11-08T10:13:54.777Z,99117.16
2022-11-08T10:16:46.067Z,99114.88
2022-11-08T10:19:29.161Z,99110.47
2022-11-08T10:21:55.777Z,99116.41
2022-11-08T10:24:37.487Z,99120.50
2022-11-08T10:27:10.664Z,99108.69
2022-11-08T10:29:40.183Z,99115.28
2022-11-08T10:32:20.540Z,99117.13
2022-11-08T10:34:50.525Z,99115.81
2022-11-08T10:37:17.955Z,99117.22
2022-11-08T10:40:08.245Z,99120.97
2022-11-08T10:42:39.308Z,99114.69
2022-11-08T10:45:07.052Z,99105.19
2022-11-08T10:47:34.101Z,99108.44
2022-11-08T10:50:04.210Z,99104.94
2022-11-08T10:52:39.585Z,99113.81
2022-11-08T10:55:08.260Z,99106.97
2022-11-08T10:57:39.084Z,99101.41
2022-11-08T11:00:15.329Z,99105.78
2022-11-08T11:02:42.961Z,99100.56
2022-11-08T11:05:19.753Z,99100.56
2022-11-08T11:07:59.244Z,99092.53
2022-11-08T11:10:28.631Z,99099.06
2022-11-08T11:13:01.585Z,99095.41
2022-11-08T11:15:37.519Z,99090.50
2022-11-08T11:18:05.506Z,99097.06
2022-11-08T11:20:32.994Z,99099.00
2022-11-08T11:23:00.484Z,99099.34
2022-11-08T11:25:27.777Z,99095.47
2022-11-08T11:27:56.236Z,99092.91
2022-11-08T11:30:33.195Z,99094.69
2022-11-08T11:33:00.004Z,99100.19
2022-11-08T11:35:32.380Z,99091.97
2022-11-08T11:38:00.950Z,99091.13
2022-11-08T11:40:40.456Z,99094.22
2022-11-08T11:43:14.162Z,99095.03
2022-11-08T11:45:44.949Z,99094.94
2022-11-08T11:48:15.327Z,99091.69
2022-11-08T11:50:47.030Z,99082.94
2022-11-08T11:53:22.796Z,99076.47
2022-11-08T11:56:02.012Z,99084.16
2022-11-08T11:58:28.697Z,99084.91
2022-11-08T12:00:59.260Z,99082.66
